sensor_id;sensor_type;location;lat;lon;timestamp;P1;durP1;ratioP1;P2;durP2;ratioP2
45620;SDS011;31345;51.522;10.702;2023-12-22T00:00:09;22.77;;;4.73;;
45620;SDS011;31345;51.522;10.702;2023-12-22T00:02:42;21.43;;;4.97;;
45620;SDS011;31345;51.522;10.702;2023-12-22T00:05:11;21.03;;;4.77;;
45620;SDS011;31345;51.522;10.702;2023-12-22T00:07:39;19.87;;;5.67;;
45620;SDS011;31345;51.522;10.702;2023-12-22T00:10:11;25.07;;;5.73;;
45620;SDS011;31345;51.522;10.702;2023-12-22T00:12:44;17.37;;;5.60;;
45620;SDS011;31345;51.522;10.702;2023-12-22T00:15:16;26.33;;;4.83;;
45620;SDS011;31345;51.522;10.702;2023-12-22T00:17:48;18.00;;;4.33;;
45620;SDS011;31345;51.522;10.702;2023-12-22T00:20:22;21.83;;;5.57;;
45620;SDS011;31345;51.522;10.702;2023-12-22T00:22:55;21.50;;;4.80;;
45620;SDS011;31345;51.522;10.702;2023-12-22T00:25:27;29.63;;;5.83;;
45620;SDS011;31345;51.522;10.702;2023-12-22T00:27:54;29.83;;;5.43;;
45620;SDS011;31345;51.522;10.702;2023-12-22T00:30:22;21.27;;;4.73;;
45620;SDS011;31345;51.522;10.702;2023-12-22T00:32:55;21.40;;;4.33;;
45620;SDS011;31345;51.522;10.702;2023-12-22T00:35:28;22.20;;;4.67;;
45620;SDS011;31345;51.522;10.702;2023-12-22T00:37:56;19.80;;;5.03;;
45620;SDS011;31345;51.522;10.702;2023-12-22T00:40:29;24.27;;;4.73;;
45620;SDS011;31345;51.522;10.702;2023-12-22T00:43:01;23.87;;;4.57;;
45620;SDS011;31345;51.522;10.702;2023-12-22T00:45:34;18.97;;;3.83;;
45620;SDS011;31345;51.522;10.702;2023-12-22T00:48:01;16.80;;;4.40;;
45620;SDS011;31345;51.522;10.702;2023-12-22T00:50:35;22.47;;;5.07;;
45620;SDS011;31345;51.522;10.702;2023-12-22T00:53:08;17.03;;;4.33;;
45620;SDS011;31345;51.522;10.702;2023-12-22T00:55:42;20.40;;;5.00;;
45620;SDS011;31345;51.522;10.702;2023-12-22T00:58:14;17.53;;;4.33;;
45620;SDS011;31345;51.522;10.702;2023-12-22T01:00:47;18.40;;;4.10;;
45620;SDS011;31345;51.522;10.702;2023-12-22T01:03:19;17.63;;;3.93;;
45620;SDS011;31345;51.522;10.702;2023-12-22T01:05:53;20.33;;;4.73;;
45620;SDS011;31345;51.522;10.702;2023-12-22T01:08:25;21.80;;;4.23;;
45620;SDS011;31345;51.522;10.702;2023-12-22T01:10:57;15.00;;;3.67;;
45620;SDS011;31345;51.522;10.702;2023-12-22T01:13:30;21.50;;;4.10;;
45620;SDS011;31345;51.522;10.702;2023-12-22T01:16:02;16.93;;;3.83;;
45620;SDS011;31345;51.522;10.702;2023-12-22T01:18:30;25.60;;;5.43;;
45620;SDS011;31345;51.522;10.702;2023-12-22T01:21:04;18.40;;;3.47;;
45620;SDS011;31345;51.522;10.702;2023-12-22T01:23:36;19.10;;;4.30;;
45620;SDS011;31345;51.522;10.702;2023-12-22T01:26:03;16.97;;;3.90;;
45620;SDS011;31345;51.522;10.702;2023-12-22T01:28:31;16.27;;;3.70;;
45620;SDS011;31345;51.522;10.702;2023-12-22T01:31:03;13.90;;;4.37;;
45620;SDS011;31345;51.522;10.702;2023-12-22T01:33:35;17.53;;;3.80;;
45620;SDS011;31345;51.522;10.702;2023-12-22T01:36:09;15.40;;;3.13;;
45620;SDS011;31345;51.522;10.702;2023-12-22T01:38:42;19.30;;;3.53;;
45620;SDS011;31345;51.522;10.702;2023-12-22T01:41:14;12.43;;;3.30;;
45620;SDS011;31345;51.522;10.702;2023-12-22T01:43:42;22.53;;;3.57;;
45620;SDS011;31345;51.522;10.702;2023-12-22T01:46:14;17.03;;;3.77;;
45620;SDS011;31345;51.522;10.702;2023-12-22T01:48:46;20.57;;;5.07;;
45620;SDS011;31345;51.522;10.702;2023-12-22T01:51:20;15.70;;;3.37;;
45620;SDS011;31345;51.522;10.702;2023-12-22T01:53:48;15.50;;;4.17;;
45620;SDS011;31345;51.522;10.702;2023-12-22T01:56:15;22.37;;;5.03;;
45620;SDS011;31345;51.522;10.702;2023-12-22T01:58:48;20.83;;;3.93;;
45620;SDS011;31345;51.522;10.702;2023-12-22T02:01:19;19.77;;;3.80;;
45620;SDS011;31345;51.522;10.702;2023-12-22T02:03:48;17.33;;;4.27;;
45620;SDS011;31345;51.522;10.702;2023-12-22T02:06:18;19.38;;;4.68;;
45620;SDS011;31345;51.522;10.702;2023-12-22T02:08:47;17.23;;;2.90;;
45620;SDS011;31345;51.522;10.702;2023-12-22T02:11:20;16.63;;;2.70;;
45620;SDS011;31345;51.522;10.702;2023-12-22T02:13:47;10.80;;;2.70;;
45620;SDS011;31345;51.522;10.702;2023-12-22T02:16:16;8.37;;;2.30;;
45620;SDS011;31345;51.522;10.702;2023-12-22T02:18:52;10.90;;;1.90;;
45620;SDS011;31345;51.522;10.702;2023-12-22T02:21:28;7.60;;;1.87;;
45620;SDS011;31345;51.522;10.702;2023-12-22T02:24:01;5.17;;;1.10;;
45620;SDS011;31345;51.522;10.702;2023-12-22T02:26:33;9.03;;;1.50;;
45620;SDS011;31345;51.522;10.702;2023-12-22T02:29:13;6.77;;;1.67;;
45620;SDS011;31345;51.522;10.702;2023-12-22T02:31:42;3.57;;;1.07;;
45620;SDS011;31345;51.522;10.702;2023-12-22T02:34:19;4.37;;;1.37;;
45620;SDS011;31345;51.522;10.702;2023-12-22T02:36:54;2.70;;;1.13;;
45620;SDS011;31345;51.522;10.702;2023-12-22T02:39:24;5.13;;;1.20;;
45620;SDS011;31345;51.522;10.702;2023-12-22T02:41:57;5.70;;;1.47;;
45620;SDS011;31345;51.522;10.702;2023-12-22T02:44:30;6.93;;;1.47;;
45620;SDS011;31345;51.522;10.702;2023-12-22T02:47:03;5.53;;;1.60;;
45620;SDS011;31345;51.522;10.702;2023-12-22T02:49:36;11.90;;;1.87;;
45620;SDS011;31345;51.522;10.702;2023-12-22T02:52:03;10.60;;;1.87;;
45620;SDS011;31345;51.522;10.702;2023-12-22T02:54:37;10.17;;;2.40;;
45620;SDS011;31345;51.522;10.702;2023-12-22T02:57:06;13.73;;;3.57;;
45620;SDS011;31345;51.522;10.702;2023-12-22T02:59:33;10.20;;;3.07;;
45620;SDS011;31345;51.522;10.702;2023-12-22T03:02:01;15.63;;;2.73;;
45620;SDS011;31345;51.522;10.702;2023-12-22T03:04:33;11.30;;;2.40;;
45620;SDS011;31345;51.522;10.702;2023-12-22T03:07:01;14.77;;;3.07;;
45620;SDS011;31345;51.522;10.702;2023-12-22T03:09:33;15.10;;;2.60;;
45620;SDS011;31345;51.522;10.702;2023-12-22T03:12:07;14.23;;;2.93;;
45620;SDS011;31345;51.522;10.702;2023-12-22T03:14:35;10.33;;;2.43;;
45620;SDS011;31345;51.522;10.702;2023-12-22T03:17:03;7.70;;;2.43;;
45620;SDS011;31345;51.522;10.702;2023-12-22T03:19:37;13.77;;;2.37;;
45620;SDS011;31345;51.522;10.702;2023-12-22T03:22:09;10.87;;;2.27;;
45620;SDS011;31345;51.522;10.702;2023-12-22T03:24:41;7.20;;;2.40;;
45620;SDS011;31345;51.522;10.702;2023-12-22T03:27:15;12.30;;;2.10;;
45620;SDS011;31345;51.522;10.702;2023-12-22T03:29:49;11.47;;;2.43;;
45620;SDS011;31345;51.522;10.702;2023-12-22T03:32:16;10.40;;;2.37;;
45620;SDS011;31345;51.522;10.702;2023-12-22T03:34:48;12.03;;;2.77;;
45620;SDS011;31345;51.522;10.702;2023-12-22T03:37:16;12.37;;;2.33;;
45620;SDS011;31345;51.522;10.702;2023-12-22T03:39:43;14.73;;;3.10;;
45620;SDS011;31345;51.522;10.702;2023-12-22T03:42:17;12.03;;;2.93;;
45620;SDS011;31345;51.522;10.702;2023-12-22T03:44:44;11.77;;;3.60;;
45620;SDS011;31345;51.522;10.702;2023-12-22T03:47:11;27.87;;;4.37;;
45620;SDS011;31345;51.522;10.702;2023-12-22T03:49:46;10.50;;;2.03;;
45620;SDS011;31345;51.522;10.702;2023-12-22T03:52:18;13.47;;;3.13;;
45620;SDS011;31345;51.522;10.702;2023-12-22T03:54:46;9.23;;;2.80;;
45620;SDS011;31345;51.522;10.702;2023-12-22T03:57:19;18.40;;;3.33;;
45620;SDS011;31345;51.522;10.702;2023-12-22T03:59:52;11.10;;;2.50;;
45620;SDS011;31345;51.522;10.702;2023-12-22T04:02:24;12.97;;;2.83;;
45620;SDS011;31345;51.522;10.702;2023-12-22T04:04:57;11.70;;;2.80;;
45620;SDS011;31345;51.522;10.702;2023-12-22T04:07:29;15.60;;;2.23;;
45620;SDS011;31345;51.522;10.702;2023-12-22T04:09:56;10.60;;;2.33;;
45620;SDS011;31345;51.522;10.702;2023-12-22T04:12:25;10.53;;;2.50;;
45620;SDS011;31345;51.522;10.702;2023-12-22T04:14:57;13.70;;;2.50;;
45620;SDS011;31345;51.522;10.702;2023-12-22T04:17:30;9.17;;;2.13;;
45620;SDS011;31345;51.522;10.702;2023-12-22T04:20:03;15.30;;;2.80;;
45620;SDS011;31345;51.522;10.702;2023-12-22T04:22:31;9.13;;;2.10;;
45620;SDS011;31345;51.522;10.702;2023-12-22T04:25:04;7.57;;;1.90;;
45620;SDS011;31345;51.522;10.702;2023-12-22T04:27:39;8.07;;;2.70;;
45620;SDS011;31345;51.522;10.702;2023-12-22T04:30:13;10.50;;;1.97;;
45620;SDS011;31345;51.522;10.702;2023-12-22T04:32:45;8.03;;;2.93;;
45620;SDS011;31345;51.522;10.702;2023-12-22T04:35:18;4.57;;;1.43;;
45620;SDS011;31345;51.522;10.702;2023-12-22T04:37:50;9.37;;;2.37;;
45620;SDS011;31345;51.522;10.702;2023-12-22T04:40:22;9.10;;;2.10;;
45620;SDS011;31345;51.522;10.702;2023-12-22T04:42:56;8.37;;;2.13;;
45620;SDS011;31345;51.522;10.702;2023-12-22T04:45:28;7.60;;;1.90;;
45620;SDS011;31345;51.522;10.702;2023-12-22T04:48:01;6.63;;;1.60;;
45620;SDS011;31345;51.522;10.702;2023-12-22T04:50:34;8.30;;;1.83;;
45620;SDS011;31345;51.522;10.702;2023-12-22T04:53:06;10.77;;;2.17;;
45620;SDS011;31345;51.522;10.702;2023-12-22T04:55:38;10.40;;;1.97;;
45620;SDS011;31345;51.522;10.702;2023-12-22T04:58:07;8.27;;;2.80;;
45620;SDS011;31345;51.522;10.702;2023-12-22T05:00:40;9.10;;;2.10;;
45620;SDS011;31345;51.522;10.702;2023-12-22T05:03:07;8.03;;;1.60;;
45620;SDS011;31345;51.522;10.702;2023-12-22T05:05:39;11.87;;;1.97;;
45620;SDS011;31345;51.522;10.702;2023-12-22T05:08:12;9.50;;;2.07;;
45620;SDS011;31345;51.522;10.702;2023-12-22T05:10:41;16.53;;;2.60;;
45620;SDS011;31345;51.522;10.702;2023-12-22T05:13:16;11.80;;;2.47;;
45620;SDS011;31345;51.522;10.702;2023-12-22T05:15:48;9.87;;;2.43;;
45620;SDS011;31345;51.522;10.702;2023-12-22T05:18:15;11.20;;;2.90;;
45620;SDS011;31345;51.522;10.702;2023-12-22T05:20:48;9.63;;;2.30;;
45620;SDS011;31345;51.522;10.702;2023-12-22T05:23:20;14.23;;;3.03;;
45620;SDS011;31345;51.522;10.702;2023-12-22T05:25:53;13.33;;;3.30;;
45620;SDS011;31345;51.522;10.702;2023-12-22T05:28:26;13.20;;;2.40;;
45620;SDS011;31345;51.522;10.702;2023-12-22T05:30:59;11.37;;;2.67;;
45620;SDS011;31345;51.522;10.702;2023-12-22T05:33:26;16.50;;;3.00;;
45620;SDS011;31345;51.522;10.702;2023-12-22T05:35:58;16.40;;;3.07;;
45620;SDS011;31345;51.522;10.702;2023-12-22T05:38:31;13.40;;;3.03;;
45620;SDS011;31345;51.522;10.702;2023-12-22T05:41:03;13.87;;;2.13;;
45620;SDS011;31345;51.522;10.702;2023-12-22T05:43:37;15.57;;;2.90;;
45620;SDS011;31345;51.522;10.702;2023-12-22T05:46:10;8.30;;;2.67;;
45620;SDS011;31345;51.522;10.702;2023-12-22T05:48:37;6.17;;;2.07;;
45620;SDS011;31345;51.522;10.702;2023-12-22T05:51:09;16.90;;;3.67;;
45620;SDS011;31345;51.522;10.702;2023-12-22T05:53:39;16.43;;;2.60;;
45620;SDS011;31345;51.522;10.702;2023-12-22T05:56:17;10.57;;;2.47;;
45620;SDS011;31345;51.522;10.702;2023-12-22T05:58:52;12.53;;;2.33;;
45620;SDS011;31345;51.522;10.702;2023-12-22T06:01:20;13.70;;;2.53;;
45620;SDS011;31345;51.522;10.702;2023-12-22T06:03:48;8.10;;;2.53;;
45620;SDS011;31345;51.522;10.702;2023-12-22T06:06:20;12.30;;;2.80;;
45620;SDS011;31345;51.522;10.702;2023-12-22T06:08:47;19.10;;;4.20;;
45620;SDS011;31345;51.522;10.702;2023-12-22T06:11:20;11.70;;;2.80;;
45620;SDS011;31345;51.522;10.702;2023-12-22T06:13:54;11.27;;;2.30;;
45620;SDS011;31345;51.522;10.702;2023-12-22T06:16:21;11.83;;;2.63;;
45620;SDS011;31345;51.522;10.702;2023-12-22T06:18:49;10.97;;;2.83;;
45620;SDS011;31345;51.522;10.702;2023-12-22T06:21:16;10.13;;;2.17;;
45620;SDS011;31345;51.522;10.702;2023-12-22T06:23:48;8.40;;;2.10;;
45620;SDS011;31345;51.522;10.702;2023-12-22T06:26:16;6.60;;;1.87;;
45620;SDS011;31345;51.522;10.702;2023-12-22T06:28:48;8.40;;;1.60;;
45620;SDS011;31345;51.522;10.702;2023-12-22T06:31:22;9.20;;;2.07;;
45620;SDS011;31345;51.522;10.702;2023-12-22T06:33:50;11.83;;;2.90;;
45620;SDS011;31345;51.522;10.702;2023-12-22T06:36:19;9.70;;;2.00;;
45620;SDS011;31345;51.522;10.702;2023-12-22T06:38:52;8.60;;;1.70;;
45620;SDS011;31345;51.522;10.702;2023-12-22T06:41:25;9.83;;;2.17;;
45620;SDS011;31345;51.522;10.702;2023-12-22T06:43:59;5.90;;;1.80;;
45620;SDS011;31345;51.522;10.702;2023-12-22T06:46:33;11.20;;;2.10;;
45620;SDS011;31345;51.522;10.702;2023-12-22T06:49:01;9.10;;;2.30;;
45620;SDS011;31345;51.522;10.702;2023-12-22T06:51:33;10.13;;;2.13;;
45620;SDS011;31345;51.522;10.702;2023-12-22T06:54:01;5.07;;;1.93;;
45620;SDS011;31345;51.522;10.702;2023-12-22T06:56:35;5.40;;;2.30;;
45620;SDS011;31345;51.522;10.702;2023-12-22T06:59:07;6.17;;;1.37;;
45620;SDS011;31345;51.522;10.702;2023-12-22T07:01:44;8.83;;;2.03;;
45620;SDS011;31345;51.522;10.702;2023-12-22T07:04:16;8.07;;;1.63;;
45620;SDS011;31345;51.522;10.702;2023-12-22T07:06:43;9.60;;;1.97;;
45620;SDS011;31345;51.522;10.702;2023-12-22T07:09:31;6.90;;;1.37;;
45620;SDS011;31345;51.522;10.702;2023-12-22T07:12:04;6.22;;;1.77;;
45620;SDS011;31345;51.522;10.702;2023-12-22T07:14:32;4.47;;;1.53;;
45620;SDS011;31345;51.522;10.702;2023-12-22T07:17:07;8.30;;;1.50;;
45620;SDS011;31345;51.522;10.702;2023-12-22T07:19:34;5.23;;;1.60;;
45620;SDS011;31345;51.522;10.702;2023-12-22T07:22:07;5.47;;;1.67;;
45620;SDS011;31345;51.522;10.702;2023-12-22T07:24:40;2.17;;;0.83;;
45620;SDS011;31345;51.522;10.702;2023-12-22T07:27:07;6.27;;;1.30;;
45620;SDS011;31345;51.522;10.702;2023-12-22T07:29:39;6.80;;;1.77;;
45620;SDS011;31345;51.522;10.702;2023-12-22T07:32:13;3.37;;;1.20;;
45620;SDS011;31345;51.522;10.702;2023-12-22T07:34:41;7.33;;;1.50;;
45620;SDS011;31345;51.522;10.702;2023-12-22T07:37:13;6.37;;;1.40;;
45620;SDS011;31345;51.522;10.702;2023-12-22T07:39:45;4.50;;;1.30;;
45620;SDS011;31345;51.522;10.702;2023-12-22T07:42:13;5.80;;;1.60;;
45620;SDS011;31345;51.522;10.702;2023-12-22T07:44:45;4.93;;;1.70;;
45620;SDS011;31345;51.522;10.702;2023-12-22T07:47:14;2.30;;;1.07;;
45620;SDS011;31345;51.522;10.702;2023-12-22T07:49:46;7.70;;;1.10;;
45620;SDS011;31345;51.522;10.702;2023-12-22T07:52:20;6.33;;;1.03;;
45620;SDS011;31345;51.522;10.702;2023-12-22T07:54:48;5.30;;;1.87;;
45620;SDS011;31345;51.522;10.702;2023-12-22T07:57:20;3.63;;;1.10;;
45620;SDS011;31345;51.522;10.702;2023-12-22T07:59:47;3.67;;;1.40;;
45620;SDS011;31345;51.522;10.702;2023-12-22T08:02:16;6.97;;;1.37;;
45620;SDS011;31345;51.522;10.702;2023-12-22T08:04:47;14.30;;;1.73;;
45620;SDS011;31345;51.522;10.702;2023-12-22T08:07:19;12.10;;;2.33;;
45620;SDS011;31345;51.522;10.702;2023-12-22T08:09:50;7.28;;;1.98;;
45620;SDS011;31345;51.522;10.702;2023-12-22T08:12:22;7.03;;;1.80;;
45620;SDS011;31345;51.522;10.702;2023-12-22T08:14:55;10.33;;;2.07;;
45620;SDS011;31345;51.522;10.702;2023-12-22T08:17:26;8.80;;;3.03;;
45620;SDS011;31345;51.522;10.702;2023-12-22T08:19:59;9.03;;;2.33;;
45620;SDS011;31345;51.522;10.702;2023-12-22T08:22:31;14.33;;;2.63;;
45620;SDS011;31345;51.522;10.702;2023-12-22T08:24:59;9.73;;;2.43;;
45620;SDS011;31345;51.522;10.702;2023-12-22T08:27:31;10.27;;;2.47;;
45620;SDS011;31345;51.522;10.702;2023-12-22T08:29:58;9.80;;;2.33;;
45620;SDS011;31345;51.522;10.702;2023-12-22T08:32:32;15.00;;;2.97;;
45620;SDS011;31345;51.522;10.702;2023-12-22T08:35:05;13.10;;;2.40;;
45620;SDS011;31345;51.522;10.702;2023-12-22T08:37:38;8.90;;;2.80;;
45620;SDS011;31345;51.522;10.702;2023-12-22T08:40:06;9.20;;;2.23;;
45620;SDS011;31345;51.522;10.702;2023-12-22T08:42:34;16.33;;;1.93;;
45620;SDS011;31345;51.522;10.702;2023-12-22T08:45:07;7.70;;;2.23;;
45620;SDS011;31345;51.522;10.702;2023-12-22T08:47:41;13.43;;;2.40;;
45620;SDS011;31345;51.522;10.702;2023-12-22T08:50:14;9.07;;;2.10;;
45620;SDS011;31345;51.522;10.702;2023-12-22T08:52:53;12.03;;;2.53;;
45620;SDS011;31345;51.522;10.702;2023-12-22T08:55:30;8.73;;;2.17;;
45620;SDS011;31345;51.522;10.702;2023-12-22T08:57:57;6.10;;;1.63;;
45620;SDS011;31345;51.522;10.702;2023-12-22T09:00:30;10.77;;;3.10;;
45620;SDS011;31345;51.522;10.702;2023-12-22T09:03:04;8.57;;;2.13;;
45620;SDS011;31345;51.522;10.702;2023-12-22T09:05:36;11.63;;;2.27;;
45620;SDS011;31345;51.522;10.702;2023-12-22T09:08:08;8.97;;;2.07;;
45620;SDS011;31345;51.522;10.702;2023-12-22T09:10:41;10.77;;;3.70;;
45620;SDS011;31345;51.522;10.702;2023-12-22T09:13:09;8.20;;;2.93;;
45620;SDS011;31345;51.522;10.702;2023-12-22T09:15:37;11.27;;;2.63;;
45620;SDS011;31345;51.522;10.702;2023-12-22T09:18:11;15.43;;;3.27;;
45620;SDS011;31345;51.522;10.702;2023-12-22T09:20:44;11.10;;;3.17;;
45620;SDS011;31345;51.522;10.702;2023-12-22T09:23:17;13.20;;;2.77;;
45620;SDS011;31345;51.522;10.702;2023-12-22T09:25:51;15.77;;;3.20;;
45620;SDS011;31345;51.522;10.702;2023-12-22T09:28:23;10.33;;;2.53;;
45620;SDS011;31345;51.522;10.702;2023-12-22T09:30:51;11.03;;;2.23;;
45620;SDS011;31345;51.522;10.702;2023-12-22T09:33:24;11.93;;;3.00;;
45620;SDS011;31345;51.522;10.702;2023-12-22T09:35:57;12.43;;;2.67;;
45620;SDS011;31345;51.522;10.702;2023-12-22T09:38:25;12.20;;;3.40;;
45620;SDS011;31345;51.522;10.702;2023-12-22T09:40:58;10.33;;;2.70;;
45620;SDS011;31345;51.522;10.702;2023-12-22T09:43:27;10.40;;;2.77;;
45620;SDS011;31345;51.522;10.702;2023-12-22T09:46:00;13.83;;;3.83;;
45620;SDS011;31345;51.522;10.702;2023-12-22T09:48:35;9.60;;;2.20;;
45620;SDS011;31345;51.522;10.702;2023-12-22T09:53:38;13.13;;;2.67;;
45620;SDS011;31345;51.522;10.702;2023-12-22T09:56:12;11.80;;;2.00;;
45620;SDS011;31345;51.522;10.702;2023-12-22T09:58:46;9.70;;;2.47;;
45620;SDS011;31345;51.522;10.702;2023-12-22T10:01:20;8.13;;;3.43;;
45620;SDS011;31345;51.522;10.702;2023-12-22T10:03:55;11.03;;;4.00;;
45620;SDS011;31345;51.522;10.702;2023-12-22T10:06:28;14.90;;;3.57;;
45620;SDS011;31345;51.522;10.702;2023-12-22T10:08:55;8.90;;;1.90;;
45620;SDS011;31345;51.522;10.702;2023-12-22T10:11:29;12.73;;;2.90;;
45620;SDS011;31345;51.522;10.702;2023-12-22T10:14:01;13.37;;;3.27;;
45620;SDS011;31345;51.522;10.702;2023-12-22T10:16:34;9.07;;;1.97;;
45620;SDS011;31345;51.522;10.702;2023-12-22T10:19:04;10.17;;;2.50;;
45620;SDS011;31345;51.522;10.702;2023-12-22T10:21:34;13.40;;;2.63;;
45620;SDS011;31345;51.522;10.702;2023-12-22T10:24:06;10.40;;;2.63;;
45620;SDS011;31345;51.522;10.702;2023-12-22T10:26:39;12.37;;;3.30;;
45620;SDS011;31345;51.522;10.702;2023-12-22T10:29:06;12.77;;;3.80;;
45620;SDS011;31345;51.522;10.702;2023-12-22T10:31:40;16.40;;;3.33;;
45620;SDS011;31345;51.522;10.702;2023-12-22T10:34:12;11.33;;;2.70;;
45620;SDS011;31345;51.522;10.702;2023-12-22T10:36:45;9.47;;;3.10;;
45620;SDS011;31345;51.522;10.702;2023-12-22T10:39:20;12.13;;;2.93;;
45620;SDS011;31345;51.522;10.702;2023-12-22T10:41:53;10.70;;;2.33;;
45620;SDS011;31345;51.522;10.702;2023-12-22T10:44:26;12.30;;;2.10;;
45620;SDS011;31345;51.522;10.702;2023-12-22T10:46:54;17.90;;;5.23;;
45620;SDS011;31345;51.522;10.702;2023-12-22T10:49:23;9.10;;;2.70;;
45620;SDS011;31345;51.522;10.702;2023-12-22T10:51:51;8.53;;;2.20;;
45620;SDS011;31345;51.522;10.702;2023-12-22T10:54:19;14.83;;;2.83;;
45620;SDS011;31345;51.522;10.702;2023-12-22T10:56:46;5.53;;;1.77;;
45620;SDS011;31345;51.522;10.702;2023-12-22T10:59:19;9.60;;;2.07;;
45620;SDS011;31345;51.522;10.702;2023-12-22T11:01:51;13.43;;;4.78;;
45620;SDS011;31345;51.522;10.702;2023-12-22T11:04:20;10.17;;;2.80;;
45620;SDS011;31345;51.522;10.702;2023-12-22T11:06:54;9.17;;;1.80;;
45620;SDS011;31345;51.522;10.702;2023-12-22T11:09:31;9.23;;;2.10;;
45620;SDS011;31345;51.522;10.702;2023-12-22T11:11:58;12.83;;;2.90;;
45620;SDS011;31345;51.522;10.702;2023-12-22T11:14:33;19.73;;;3.73;;
45620;SDS011;31345;51.522;10.702;2023-12-22T11:17:01;11.13;;;2.40;;
45620;SDS011;31345;51.522;10.702;2023-12-22T11:19:36;7.67;;;1.83;;
45620;SDS011;31345;51.522;10.702;2023-12-22T11:22:07;8.57;;;1.83;;
45620;SDS011;31345;51.522;10.702;2023-12-22T11:24:42;7.83;;;2.00;;
45620;SDS011;31345;51.522;10.702;2023-12-22T11:27:16;8.13;;;1.73;;
45620;SDS011;31345;51.522;10.702;2023-12-22T11:29:50;10.23;;;2.03;;
45620;SDS011;31345;51.522;10.702;2023-12-22T11:32:23;13.13;;;3.07;;
45620;SDS011;31345;51.522;10.702;2023-12-22T11:34:57;6.50;;;1.63;;
45620;SDS011;31345;51.522;10.702;2023-12-22T11:37:32;8.00;;;1.67;;
45620;SDS011;31345;51.522;10.702;2023-12-22T11:40:03;9.68;;;1.83;;
45620;SDS011;31345;51.522;10.702;2023-12-22T11:42:37;7.23;;;1.30;;
45620;SDS011;31345;51.522;10.702;2023-12-22T11:45:09;3.08;;;1.33;;
45620;SDS011;31345;51.522;10.702;2023-12-22T11:47:39;4.60;;;1.67;;
45620;SDS011;31345;51.522;10.702;2023-12-22T11:50:13;4.60;;;1.67;;
45620;SDS011;31345;51.522;10.702;2023-12-22T11:55:58;4.07;;;1.10;;
45620;SDS011;31345;51.522;10.702;2023-12-22T11:58:38;4.07;;;1.43;;
45620;SDS011;31345;51.522;10.702;2023-12-22T12:01:10;3.70;;;1.40;;
45620;SDS011;31345;51.522;10.702;2023-12-22T12:03:47;6.10;;;1.40;;
45620;SDS011;31345;51.522;10.702;2023-12-22T12:06:30;6.13;;;1.57;;
45620;SDS011;31345;51.522;10.702;2023-12-22T12:09:01;6.27;;;1.80;;
45620;SDS011;31345;51.522;10.702;2023-12-22T12:14:42;6.00;;;1.10;;
45620;SDS011;31345;51.522;10.702;2023-12-22T12:17:11;4.27;;;1.13;;
45620;SDS011;31345;51.522;10.702;2023-12-22T12:19:49;3.60;;;1.40;;
45620;SDS011;31345;51.522;10.702;2023-12-22T12:22:23;5.03;;;1.13;;
45620;SDS011;31345;51.522;10.702;2023-12-22T12:24:58;2.97;;;1.40;;
45620;SDS011;31345;51.522;10.702;2023-12-22T12:27:32;3.60;;;1.60;;
45620;SDS011;31345;51.522;10.702;2023-12-22T12:30:11;5.17;;;1.40;;
45620;SDS011;31345;51.522;10.702;2023-12-22T12:32:41;3.97;;;1.30;;
45620;SDS011;31345;51.522;10.702;2023-12-22T12:35:15;4.60;;;1.07;;
45620;SDS011;31345;51.522;10.702;2023-12-22T12:37:50;5.60;;;1.47;;
45620;SDS011;31345;51.522;10.702;2023-12-22T12:40:25;5.03;;;1.57;;
45620;SDS011;31345;51.522;10.702;2023-12-22T12:43:00;3.03;;;1.23;;
45620;SDS011;31345;51.522;10.702;2023-12-22T12:45:34;3.93;;;1.13;;
45620;SDS011;31345;51.522;10.702;2023-12-22T12:48:06;7.97;;;3.53;;
45620;SDS011;31345;51.522;10.702;2023-12-22T12:50:38;6.10;;;2.47;;
45620;SDS011;31345;51.522;10.702;2023-12-22T12:53:10;4.20;;;1.50;;
45620;SDS011;31345;51.522;10.702;2023-12-22T12:55:44;8.97;;;3.83;;
45620;SDS011;31345;51.522;10.702;2023-12-22T12:58:17;5.50;;;2.50;;
45620;SDS011;31345;51.522;10.702;2023-12-22T13:00:44;6.43;;;1.40;;
45620;SDS011;31345;51.522;10.702;2023-12-22T13:03:17;5.27;;;1.73;;
45620;SDS011;31345;51.522;10.702;2023-12-22T13:05:44;3.90;;;1.30;;
45620;SDS011;31345;51.522;10.702;2023-12-22T13:08:17;6.00;;;2.37;;
45620;SDS011;31345;51.522;10.702;2023-12-22T13:10:46;5.25;;;2.30;;
45620;SDS011;31345;51.522;10.702;2023-12-22T13:13:18;2.83;;;1.30;;
45620;SDS011;31345;51.522;10.702;2023-12-22T13:15:52;2.10;;;1.10;;
45620;SDS011;31345;51.522;10.702;2023-12-22T13:18:24;6.05;;;1.58;;
45620;SDS011;31345;51.522;10.702;2023-12-22T13:20:57;4.55;;;1.60;;
45620;SDS011;31345;51.522;10.702;2023-12-22T13:23:25;3.47;;;1.10;;
45620;SDS011;31345;51.522;10.702;2023-12-22T13:25:54;4.63;;;1.00;;
45620;SDS011;31345;51.522;10.702;2023-12-22T13:28:25;5.17;;;1.10;;
45620;SDS011;31345;51.522;10.702;2023-12-22T13:30:52;5.25;;;1.95;;
45620;SDS011;31345;51.522;10.702;2023-12-22T13:33:25;5.50;;;3.17;;
45620;SDS011;31345;51.522;10.702;2023-12-22T13:36:00;3.83;;;1.27;;
45620;SDS011;31345;51.522;10.702;2023-12-22T13:38:34;6.20;;;1.90;;
45620;SDS011;31345;51.522;10.702;2023-12-22T13:41:08;9.87;;;3.80;;
45620;SDS011;31345;51.522;10.702;2023-12-22T13:43:40;2.83;;;1.40;;
45620;SDS011;31345;51.522;10.702;2023-12-22T13:46:10;4.67;;;1.43;;
45620;SDS011;31345;51.522;10.702;2023-12-22T13:48:37;5.20;;;2.50;;
45620;SDS011;31345;51.522;10.702;2023-12-22T13:51:05;7.53;;;3.40;;
45620;SDS011;31345;51.522;10.702;2023-12-22T13:53:46;7.57;;;3.30;;
45620;SDS011;31345;51.522;10.702;2023-12-22T13:56:15;5.90;;;1.90;;
45620;SDS011;31345;51.522;10.702;2023-12-22T13:58:43;7.15;;;3.00;;
45620;SDS011;31345;51.522;10.702;2023-12-22T14:01:16;6.70;;;3.43;;
45620;SDS011;31345;51.522;10.702;2023-12-22T14:03:48;5.63;;;2.07;;
45620;SDS011;31345;51.522;10.702;2023-12-22T14:06:21;5.75;;;1.40;;
45620;SDS011;31345;51.522;10.702;2023-12-22T14:08:48;3.53;;;1.70;;
45620;SDS011;31345;51.522;10.702;2023-12-22T14:11:22;3.53;;;1.67;;
45620;SDS011;31345;51.522;10.702;2023-12-22T14:13:54;4.63;;;1.90;;
45620;SDS011;31345;51.522;10.702;2023-12-22T14:16:27;7.75;;;1.65;;
45620;SDS011;31345;51.522;10.702;2023-12-22T14:18:54;7.47;;;1.60;;
45620;SDS011;31345;51.522;10.702;2023-12-22T14:21:27;4.50;;;1.30;;
45620;SDS011;31345;51.522;10.702;2023-12-22T14:23:59;5.50;;;1.55;;
45620;SDS011;31345;51.522;10.702;2023-12-22T14:26:33;4.15;;;1.48;;
45620;SDS011;31345;51.522;10.702;2023-12-22T14:29:05;3.77;;;1.70;;
45620;SDS011;31345;51.522;10.702;2023-12-22T14:31:37;4.07;;;1.23;;
45620;SDS011;31345;51.522;10.702;2023-12-22T14:34:05;4.65;;;1.30;;
45620;SDS011;31345;51.522;10.702;2023-12-22T14:36:32;5.03;;;1.10;;
45620;SDS011;31345;51.522;10.702;2023-12-22T14:38:59;2.63;;;1.23;;
45620;SDS011;31345;51.522;10.702;2023-12-22T14:41:27;7.28;;;1.70;;
45620;SDS011;31345;51.522;10.702;2023-12-22T14:44:01;8.93;;;1.92;;
45620;SDS011;31345;51.522;10.702;2023-12-22T14:46:28;5.40;;;1.60;;
45620;SDS011;31345;51.522;10.702;2023-12-22T14:48:56;3.65;;;1.42;;
45620;SDS011;31345;51.522;10.702;2023-12-22T14:51:28;3.97;;;1.67;;
45620;SDS011;31345;51.522;10.702;2023-12-22T14:53:56;4.30;;;1.38;;
45620;SDS011;31345;51.522;10.702;2023-12-22T14:56:28;3.22;;;1.42;;
45620;SDS011;31345;51.522;10.702;2023-12-22T14:59:02;3.88;;;1.23;;
45620;SDS011;31345;51.522;10.702;2023-12-22T15:01:34;5.03;;;1.40;;